createdAt,value
2023-01-26T00:00:04.563Z,102344.09
2023-01-26T00:02:33.402Z,102350.50
2023-01-26T00:05:01.744Z,102354.38
2023-01-26T00:07:30.466Z,102355.69
2023-01-26T00:09:58.778Z,102353.13
2023-01-26T00:12:28.463Z,102350.03
2023-01-26T00:14:56.715Z,102352.84
2023-01-26T00:17:27.641Z,102351.97
2023-01-26T00:19:57.924Z,102348.50
2023-01-26T00:22:28.193Z,102343.47
2023-01-26T00:24:56.493Z,102351.66
2023-01-26T00:27:24.845Z,102345.19
2023-01-26T00:29:54.848Z,102346.44
2023-01-26T00:32:23.192Z,102343.81
2023-01-26T00:34:51.555Z,102342.97
2023-01-26T00:37:20.216Z,102333.50
2023-01-26T00:39:48.491Z,102333.34
2023-01-26T00:42:16.836Z,102340.81
2023-01-26T00:44:45.207Z,102337.22
2023-01-26T00:47:16.302Z,102309.97
2023-01-26T00:49:45.018Z,102330.44
2023-01-26T00:52:14.295Z,102327.34
2023-01-26T00:54:42.600Z,102332.50
2023-01-26T00:57:11.352Z,102313.25
2023-01-26T00:59:39.608Z,102321.97
2023-01-26T01:02:08.003Z,102312.41
2023-01-26T01:04:37.803Z,102318.34
2023-01-26T01:07:06.173Z,102307.72
2023-01-26T01:09:34.771Z,102309.94
2023-01-26T01:12:03.118Z,102306.34
2023-01-26T01:14:31.449Z,102314.69
2023-01-26T01:17:00.111Z,102301.50
2023-01-26T01:19:28.885Z,102306.16
2023-01-26T01:21:58.548Z,102311.63
2023-01-26T01:24:26.923Z,102316.25
2023-01-26T01:26:55.179Z,102308.50
2023-01-26T01:29:23.520Z,102306.16
2023-01-26T01:31:51.860Z,102307.34
2023-01-26T01:34:20.205Z,102309.84
2023-01-26T01:36:48.579Z,102315.47
2023-01-26T01:39:18.220Z,102309.59
2023-01-26T01:41:46.822Z,102311.53
2023-01-26T01:44:19.438Z,102314.16
2023-01-26T01:46:53.030Z,102310.78
2023-01-26T01:49:27.079Z,102317.94
2023-01-26T01:51:59.735Z,102310.13
2023-01-26T01:54:36.532Z,102310.13
2023-01-26T01:57:15.412Z,102304.78
2023-01-26T01:59:47.094Z,102313.59
2023-01-26T02:02:16.037Z,102305.16
2023-01-26T02:04:44.520Z,102306.19
2023-01-26T02:07:13.359Z,102308.03
2023-01-26T02:10:02.273Z,102305.63
2023-01-26T02:12:33.710Z,102309.91
2023-01-26T02:15:03.892Z,102296.94
2023-01-26T02:17:32.271Z,102306.13
2023-01-26T02:20:09.630Z,102296.59
2023-01-26T02:22:48.110Z,102307.97
2023-01-26T02:25:33.525Z,102303.81
2023-01-26T02:28:03.264Z,102304.78
2023-01-26T02:30:31.943Z,102300.63
2023-01-26T02:33:00.848Z,102294.44
2023-01-26T02:35:29.290Z,102295.66
2023-01-26T02:37:57.854Z,102293.13
2023-01-26T02:40:34.320Z,102294.94
2023-01-26T02:43:03.255Z,102301.19
2023-01-26T02:45:32.680Z,102307.44
2023-01-26T02:48:04.696Z,102311.03
2023-01-26T02:50:32.639Z,102314.59
2023-01-26T02:53:01.036Z,102311.13
2023-01-26T02:55:30.752Z,102312.75
2023-01-26T02:58:01.866Z,102314.59
2023-01-26T03:00:37.187Z,102299.88
2023-01-26T03:03:14.711Z,102304.94
2023-01-26T03:05:43.389Z,102305.31
2023-01-26T03:08:11.666Z,102299.22
2023-01-26T03:10:40.527Z,102298.97
2023-01-26T03:13:09.205Z,102299.28
2023-01-26T03:15:52.381Z,102307.34
2023-01-26T03:18:41.774Z,102277.66
2023-01-26T03:21:31.653Z,102312.78
2023-01-26T03:24:17.714Z,102309.44
2023-01-26T03:27:04.577Z,102300.56
2023-01-26T03:29:34.426Z,102304.00
2023-01-26T03:32:05.219Z,102308.59
2023-01-26T03:34:34.023Z,102280.88
2023-01-26T03:37:02.387Z,102288.16
2023-01-26T03:39:56.160Z,102310.31
2023-01-26T03:42:42.807Z,102301.34
2023-01-26T03:45:29.637Z,102311.16
2023-01-26T03:48:25.474Z,102300.94
2023-01-26T03:51:11.533Z,102301.91
2023-01-26T03:53:57.543Z,102297.56
2023-01-26T03:56:27.274Z,102306.09
2023-01-26T03:59:07.921Z,102308.03
2023-01-26T04:01:38.280Z,102312.69
2023-01-26T04:04:26.338Z,102311.22
2023-01-26T04:07:12.543Z,102310.03
2023-01-26T04:09:46.191Z,102310.06
2023-01-26T04:12:14.819Z,102313.75
2023-01-26T04:15:12.716Z,102307.09
2023-01-26T04:17:59.110Z,102315.56
2023-01-26T04:20:46.512Z,102310.13
2023-01-26T04:23:19.439Z,102316.13
2023-01-26T04:25:49.507Z,102320.91
2023-01-26T04:28:18.499Z,102312.13
2023-01-26T04:30:48.295Z,102311.47
2023-01-26T04:33:16.605Z,102313.31
2023-01-26T04:35:46.453Z,102323.28
2023-01-26T04:38:14.922Z,102320.84
2023-01-26T04:40:44.194Z,102313.81
2023-01-26T04:43:12.524Z,102319.78
2023-01-26T04:45:41.043Z,102316.59
2023-01-26T04:48:09.357Z,102316.66
2023-01-26T04:50:37.694Z,102318.44
2023-01-26T04:53:07.347Z,102324.22
2023-01-26T04:55:35.692Z,102247.63
2023-01-26T04:58:04.061Z,102316.88
2023-01-26T05:00:32.983Z,102313.25
2023-01-26T05:03:02.600Z,102321.84
2023-01-26T05:05:31.190Z,102311.38
2023-01-26T05:07:59.476Z,102315.16
2023-01-26T05:10:31.723Z,102319.00
2023-01-26T05:13:24.799Z,102315.34
2023-01-26T05:16:06.031Z,102320.91
2023-01-26T05:18:43.610Z,102323.63
2023-01-26T05:21:27.465Z,102320.06
2023-01-26T05:23:56.498Z,102297.94
2023-01-26T05:27:22.770Z,102310.56
2023-01-26T05:29:55.206Z,102317.38
2023-01-26T05:32:23.929Z,102315.22
2023-01-26T05:34:52.251Z,102324.50
2023-01-26T05:37:20.909Z,102323.03
2023-01-26T05:39:49.225Z,102323.13
2023-01-26T05:42:19.537Z,102319.91
2023-01-26T05:45:08.147Z,102329.97
2023-01-26T05:47:38.017Z,102326.19
2023-01-26T05:50:08.025Z,102332.47
2023-01-26T05:52:36.875Z,102336.97
2023-01-26T05:55:06.606Z,102328.56
2023-01-26T05:57:36.909Z,102332.25
2023-01-26T06:00:09.884Z,102334.50
2023-01-26T06:02:53.943Z,102337.41
2023-01-26T06:05:22.840Z,102338.38
2023-01-26T06:07:51.838Z,102338.28
2023-01-26T06:10:26.428Z,102337.78
2023-01-26T06:13:25.334Z,102334.34
2023-01-26T06:16:02.524Z,102338.19
2023-01-26T06:18:32.041Z,102343.84
2023-01-26T06:21:02.642Z,102344.03
2023-01-26T06:23:31.909Z,102342.84
2023-01-26T06:26:03.718Z,102349.41
2023-01-26T06:28:33.388Z,102350.44
2023-01-26T06:31:02.220Z,102326.09
2023-01-26T06:33:31.350Z,102356.25
2023-01-26T06:36:03.834Z,102362.97
2023-01-26T06:38:32.627Z,102355.34
2023-01-26T06:41:03.002Z,102357.22
2023-01-26T06:43:34.997Z,102362.22
2023-01-26T06:46:04.865Z,102331.75
2023-01-26T06:48:35.507Z,102368.44
2023-01-26T06:51:24.018Z,102370.53
2023-01-26T06:53:55.161Z,102377.34
2023-01-26T06:56:34.152Z,102383.63
2023-01-26T06:59:26.928Z,102380.97
2023-01-26T07:02:24.355Z,102390.75
2023-01-26T07:04:53.057Z,102367.47
2023-01-26T07:07:21.334Z,102400.53
2023-01-26T07:09:49.664Z,102397.94
2023-01-26T07:12:17.932Z,102392.84
2023-01-26T07:14:47.706Z,102391.09
2023-01-26T07:17:15.926Z,102397.25
2023-01-26T07:19:45.284Z,102404.44
2023-01-26T07:22:15.638Z,102395.66
2023-01-26T07:24:43.936Z,102405.22
2023-01-26T07:27:12.216Z,102414.28
2023-01-26T07:29:40.458Z,102408.94
2023-01-26T07:32:10.139Z,102405.56
2023-01-26T07:34:38.379Z,102407.88
2023-01-26T07:37:06.664Z,102410.19
2023-01-26T07:39:34.974Z,102416.38
2023-01-26T07:42:03.336Z,102429.34
2023-01-26T07:44:46.512Z,102429.31
2023-01-26T07:47:16.214Z,102426.72
2023-01-26T07:49:44.496Z,102422.41
2023-01-26T07:52:12.764Z,102431.97
2023-01-26T07:54:41.156Z,102435.56
2023-01-26T07:57:09.485Z,102442.34
2023-01-26T07:59:38.100Z,102449.66
2023-01-26T08:02:06.341Z,102451.53
2023-01-26T08:04:35.996Z,102454.22
2023-01-26T08:07:04.796Z,102456.97
2023-01-26T08:09:33.263Z,102450.03
2023-01-26T08:12:01.779Z,102432.97
2023-01-26T08:14:45.152Z,102459.97
2023-01-26T08:17:17.389Z,102467.75
2023-01-26T08:19:47.935Z,102434.81
2023-01-26T08:22:16.203Z,102461.75
2023-01-26T08:24:44.427Z,102384.16
2023-01-26T08:27:12.997Z,102461.28
2023-01-26T08:29:41.360Z,102458.00
2023-01-26T08:32:10.045Z,102470.78
2023-01-26T08:34:38.343Z,102468.91
2023-01-26T08:37:07.983Z,102473.72
2023-01-26T08:39:36.308Z,102474.16
2023-01-26T08:42:04.896Z,102485.22
2023-01-26T08:44:33.191Z,102485.78
2023-01-26T08:47:01.462Z,102482.38
2023-01-26T08:49:29.800Z,102488.19
2023-01-26T08:51:58.018Z,102484.56
2023-01-26T08:54:28.726Z,102479.59
2023-01-26T08:56:56.835Z,102489.78
2023-01-26T08:59:25.101Z,102492.94
2023-01-26T09:01:53.461Z,102494.16
2023-01-26T09:04:21.879Z,102496.44
2023-01-26T09:06:50.181Z,102499.44
2023-01-26T09:09:18.577Z,102497.88
2023-01-26T09:11:48.216Z,102508.53
2023-01-26T09:14:16.542Z,102514.63
2023-01-26T09:16:44.894Z,102510.16
2023-01-26T09:19:13.228Z,102521.75
2023-01-26T09:21:41.520Z,102517.50
2023-01-26T09:24:10.550Z,102519.56
2023-01-26T09:26:38.816Z,102528.59
2023-01-26T09:29:08.522Z,102528.44
2023-01-26T09:31:36.876Z,102527.31
2023-01-26T09:34:05.167Z,102533.22
2023-01-26T09:36:33.871Z,102528.16
2023-01-26T09:39:02.196Z,102526.00
2023-01-26T09:41:53.120Z,102531.56
2023-01-26T09:44:25.690Z,102454.00
2023-01-26T09:47:06.621Z,102515.78
2023-01-26T09:49:48.420Z,102531.25
2023-01-26T09:52:25.915Z,102518.25
2023-01-26T09:54:56.405Z,102531.75
2023-01-26T09:57:32.017Z,102530.28
2023-01-26T10:00:09.244Z,102542.06
2023-01-26T10:02:52.774Z,102539.47
2023-01-26T10:05:31.482Z,102537.78
2023-01-26T10:08:13.343Z,102530.03
2023-01-26T10:10:47.956Z,102534.50
2023-01-26T10:13:17.982Z,102535.63
2023-01-26T10:15:53.528Z,102536.38
2023-01-26T10:18:29.884Z,102545.31
2023-01-26T10:21:01.769Z,102540.22
2023-01-26T10:23:32.838Z,102549.28
2023-01-26T10:26:13.053Z,102551.16
2023-01-26T10:28:44.053Z,102554.78
2023-01-26T10:31:18.831Z,102544.03
2023-01-26T10:33:55.824Z,102557.53
2023-01-26T10:36:24.497Z,102552.22
2023-01-26T10:38:53.577Z,102553.06
2023-01-26T10:41:28.609Z,102560.16
2023-01-26T10:43:59.474Z,102565.44
2023-01-26T10:46:33.911Z,102570.78
2023-01-26T10:49:05.466Z,102552.16
2023-01-26T10:51:36.357Z,102567.13
2023-01-26T10:54:24.132Z,102544.91
2023-01-26T10:56:56.643Z,102565.50
2023-01-26T10:59:31.504Z,102554.78
2023-01-26T11:02:04.720Z,102555.66
2023-01-26T11:04:33.030Z,102553.91
2023-01-26T11:07:27.093Z,102557.38
2023-01-26T11:09:56.797Z,102544.81
2023-01-26T11:12:27.232Z,102517.94
2023-01-26T11:15:08.726Z,102546.94
2023-01-26T11:17:44.340Z,102549.50
2023-01-26T11:20:48.921Z,102542.47
2023-01-26T11:23:29.522Z,102544.25
2023-01-26T11:26:29.504Z,102440.19
2023-01-26T11:29:18.622Z,102543.53
2023-01-26T11:31:58.708Z,102546.25
2023-01-26T11:34:42.594Z,102540.84
2023-01-26T11:37:40.980Z,102523.81
2023-01-26T11:40:29.977Z,102541.50
2023-01-26T11:43:34.945Z,102538.69
2023-01-26T11:46:28.299Z,102544.75
2023-01-26T11:49:16.137Z,102541.75
2023-01-26T11:52:02.037Z,102542.34
2023-01-26T11:55:05.338Z,102547.56
2023-01-26T11:57:44.235Z,102539.53
2023-01-26T12:00:30.023Z,102537.56
2023-01-26T12:03:03.997Z,102534.81
2023-01-26T12:05:42.304Z,102535.97
2023-01-26T12:08:21.398Z,102528.06
2023-01-26T12:11:21.630Z,102526.03
2023-01-26T12:13:59.285Z,102515.28
2023-01-26T12:16:39.154Z,102506.28
2023-01-26T12:19:16.603Z,102515.00
2023-01-26T12:21:47.081Z,102508.16
2023-01-26T12:24:54.348Z,102499.28
2023-01-26T12:27:24.735Z,102499.28
2023-01-26T12:29:59.077Z,102495.59
2023-01-26T12:32:27.403Z,102485.75
2023-01-26T12:34:55.745Z,102486.44
2023-01-26T12:37:42.844Z,102479.47
2023-01-26T12:40:26.406Z,102482.25
2023-01-26T12:43:14.241Z,102482.31
2023-01-26T12:45:46.068Z,102475.28
2023-01-26T12:48:20.509Z,102478.03
2023-01-26T12:50:54.142Z,102473.00
2023-01-26T12:53:30.202Z,102449.84
2023-01-26T12:56:10.773Z,102457.28
2023-01-26T12:58:43.212Z,102465.34
2023-01-26T13:01:15.009Z,102456.44
2023-01-26T13:03:47.274Z,102457.16
2023-01-26T13:06:24.672Z,102462.59
2023-01-26T13:09:04.382Z,102456.25
2023-01-26T13:11:50.424Z,102349.09
2023-01-26T13:14:38.217Z,102447.97
2023-01-26T13:17:55.899Z,102452.38
2023-01-26T13:20:47.317Z,102432.53
2023-01-26T13:23:42.594Z,102465.22
2023-01-26T13:26:18.215Z,102474.34
2023-01-26T13:28:49.797Z,102471.66
2023-01-26T13:31:33.899Z,102475.16
2023-01-26T13:34:09.016Z,102469.88
2023-01-26T13:36:40.303Z,102475.06
2023-01-26T13:39:17.271Z,102475.22
2023-01-26T13:41:48.427Z,102475.09
2023-01-26T13:44:23.278Z,102482.22
2023-01-26T13:46:56.842Z,102474.19
2023-01-26T13:49:28.122Z,102460.75
2023-01-26T13:51:56.500Z,102466.06
2023-01-26T13:54:27.133Z,102467.81
2023-01-26T13:57:03.808Z,102459.56
2023-01-26T13:59:34.520Z,102470.06
2023-01-26T14:02:02.899Z,102452.94
2023-01-26T14:04:35.145Z,102465.59
2023-01-26T14:07:06.946Z,102464.63
2023-01-26T14:09:43.949Z,102445.03
2023-01-26T14:12:22.005Z,102467.19
2023-01-26T14:14:54.583Z,102455.63
2023-01-26T14:17:28.695Z,102464.53
2023-01-26T14:19:58.288Z,102460.81
2023-01-26T14:22:27.103Z,102455.25
2023-01-26T14:24:56.145Z,102449.84
2023-01-26T14:27:34.307Z,102450.09
2023-01-26T14:30:09.233Z,102442.94
2023-01-26T14:32:37.824Z,102445.59
2023-01-26T14:35:23.413Z,102453.50
2023-01-26T14:37:52.079Z,102462.28
2023-01-26T14:40:24.081Z,102444.41
2023-01-26T14:42:54.806Z,102460.56
2023-01-26T14:45:29.293Z,102467.50
2023-01-26T14:48:00.165Z,102470.16
2023-01-26T14:50:32.257Z,102474.41
2023-01-26T14:53:01.580Z,102449.41
2023-01-26T14:55:32.134Z,102463.84
2023-01-26T14:58:04.714Z,102477.84
2023-01-26T15:00:38.260Z,102469.16
2023-01-26T15:03:14.911Z,102486.56
2023-01-26T15:05:43.316Z,102482.44
2023-01-26T15:08:23.590Z,102484.34
2023-01-26T15:11:16.369Z,102486.81
2023-01-26T15:13:47.522Z,102487.06
2023-01-26T15:16:20.324Z,102457.56
2023-01-26T15:19:00.334Z,102452.16
2023-01-26T15:21:34.614Z,102488.69
2023-01-26T15:24:04.967Z,102492.09
2023-01-26T15:26:35.393Z,102484.94
2023-01-26T15:29:07.158Z,102491.09
2023-01-26T15:31:41.524Z,102487.63
2023-01-26T15:34:31.443Z,102487.72
2023-01-26T15:37:00.601Z,102495.56
2023-01-26T15:39:29.160Z,102499.97
2023-01-26T15:42:14.503Z,102505.00
2023-01-26T15:44:43.245Z,102498.09
2023-01-26T15:47:13.931Z,102503.25
2023-01-26T15:49:42.856Z,102504.22
2023-01-26T15:52:15.325Z,102515.78
2023-01-26T15:54:43.869Z,102517.56
2023-01-26T15:57:12.608Z,102514.06
2023-01-26T15:59:41.586Z,102512.06
2023-01-26T16:02:16.556Z,102511.66
2023-01-26T16:04:45.590Z,102512.56
2023-01-26T16:07:15.995Z,102499.97
2023-01-26T16:09:44.737Z,102513.69
2023-01-26T16:12:31.305Z,102495.00
2023-01-26T16:15:00.947Z,102518.00
2023-01-26T16:17:30.785Z,102515.34
2023-01-26T16:20:00.266Z,102517.06
2023-01-26T16:22:28.487Z,102516.44
2023-01-26T16:24:56.789Z,102512.88
2023-01-26T16:27:25.321Z,102517.59
2023-01-26T16:29:53.723Z,102521.34
2023-01-26T16:32:30.354Z,102513.66
2023-01-26T16:34:58.771Z,102524.13
2023-01-26T16:37:27.312Z,102524.28
2023-01-26T16:39:55.711Z,102536.28
2023-01-26T16:42:24.003Z,102536.44
2023-01-26T16:44:52.407Z,102532.06
2023-01-26T16:47:20.821Z,102519.63
2023-01-26T16:49:50.935Z,102512.25
2023-01-26T16:52:19.292Z,102506.09
2023-01-26T16:54:48.376Z,102496.19
2023-01-26T16:57:16.749Z,102518.50
2023-01-26T16:59:45.303Z,102514.00
2023-01-26T17:02:25.005Z,102507.00
2023-01-26T17:04:54.792Z,102509.59
2023-01-26T17:07:23.080Z,102517.75
2023-01-26T17:09:51.774Z,102510.91
2023-01-26T17:12:20.100Z,102512.75
2023-01-26T17:14:48.504Z,102514.06
2023-01-26T17:17:18.576Z,102514.25
2023-01-26T17:19:46.859Z,102506.09
2023-01-26T17:22:16.565Z,102512.50
2023-01-26T17:24:45.124Z,102501.72
2023-01-26T17:27:13.360Z,102505.25
2023-01-26T17:29:42.327Z,102505.25
2023-01-26T17:32:10.824Z,102503.50
2023-01-26T17:34:39.091Z,102509.63
2023-01-26T17:37:07.306Z,102499.09
2023-01-26T17:39:37.335Z,102499.84
2023-01-26T17:42:05.744Z,102486.28
2023-01-26T17:44:34.025Z,102498.03
2023-01-26T17:47:02.547Z,102498.88
2023-01-26T17:49:30.824Z,102492.63
2023-01-26T17:51:59.191Z,102493.22
2023-01-26T17:54:27.690Z,102497.00
2023-01-26T17:56:57.892Z,102503.09
2023-01-26T17:59:26.412Z,102518.94
2023-01-26T18:01:54.987Z,102490.50
2023-01-26T18:04:23.328Z,102488.19
2023-01-26T18:06:51.659Z,102501.13
2023-01-26T18:09:20.560Z,102497.25
2023-01-26T18:11:49.763Z,102502.47
2023-01-26T18:14:19.506Z,102498.56
2023-01-26T18:16:48.057Z,102506.50
2023-01-26T18:19:16.725Z,102399.47
2023-01-26T18:21:45.167Z,102498.28
2023-01-26T18:24:13.865Z,102509.88
2023-01-26T18:26:42.197Z,102516.06
2023-01-26T18:29:11.785Z,102522.19
2023-01-26T18:31:41.924Z,102512.44
2023-01-26T18:34:12.082Z,102521.56
2023-01-26T18:36:40.680Z,102520.75
2023-01-26T18:39:13.845Z,102511.91
2023-01-26T18:41:43.335Z,102523.97
2023-01-26T18:44:11.852Z,102522.09
2023-01-26T18:46:41.820Z,102521.22
2023-01-26T18:49:11.253Z,102559.09
2023-01-26T18:51:39.622Z,102505.34
2023-01-26T18:54:09.824Z,102535.66
2023-01-26T18:56:38.242Z,102543.78
2023-01-26T18:59:06.562Z,102523.00
2023-01-26T19:01:35.296Z,102504.97
2023-01-26T19:04:06.840Z,102524.94
2023-01-26T19:06:36.446Z,102530.44
2023-01-26T19:09:07.118Z,102520.59
2023-01-26T19:11:36.849Z,102525.38
2023-01-26T19:14:07.378Z,102525.44
2023-01-26T19:16:36.181Z,102473.34
2023-01-26T19:19:06.114Z,102520.75
2023-01-26T19:21:34.613Z,102521.66
2023-01-26T19:24:06.321Z,102514.81
2023-01-26T19:26:35.384Z,102528.00
2023-01-26T19:29:04.060Z,102525.53
2023-01-26T19:31:32.454Z,102521.03
2023-01-26T19:34:03.514Z,102521.19
2023-01-26T19:36:36.909Z,102513.34
2023-01-26T19:39:07.172Z,102526.78
2023-01-26T19:41:35.916Z,102521.72
2023-01-26T19:44:04.470Z,102519.09
2023-01-26T19:46:33.100Z,102526.00
2023-01-26T19:49:01.447Z,102526.13
2023-01-26T19:51:30.721Z,102431.56
2023-01-26T19:54:00.889Z,102520.88
2023-01-26T19:56:31.898Z,102523.63
2023-01-26T19:59:03.102Z,102518.25
2023-01-26T20:01:33.381Z,102501.53
2023-01-26T20:04:04.799Z,102517.41
2023-01-26T20:06:36.313Z,102521.22
2023-01-26T20:09:08.551Z,102523.00
2023-01-26T20:11:37.817Z,102498.78
2023-01-26T20:14:08.590Z,102528.97
2023-01-26T20:16:37.302Z,102508.72
2023-01-26T20:19:06.332Z,102504.25
2023-01-26T20:21:35.526Z,102511.34
2023-01-26T20:24:06.727Z,102382.84
2023-01-26T20:26:36.349Z,102503.44
2023-01-26T20:29:04.926Z,102517.41
2023-01-26T20:31:33.968Z,102513.84
2023-01-26T20:34:02.679Z,102514.50
2023-01-26T20:36:32.062Z,102518.34
2023-01-26T20:39:00.511Z,102502.47
2023-01-26T20:41:32.802Z,102507.00
2023-01-26T20:44:03.439Z,102532.50
2023-01-26T20:46:33.586Z,102508.88
2023-01-26T20:49:02.563Z,102497.13
2023-01-26T20:51:35.956Z,102455.38
2023-01-26T20:54:07.385Z,102504.34
2023-01-26T20:56:38.526Z,102506.28
2023-01-26T20:59:08.727Z,102501.94
2023-01-26T21:01:37.277Z,102512.28
2023-01-26T21:04:06.991Z,102509.69
2023-01-26T21:06:36.244Z,102507.16
2023-01-26T21:09:05.031Z,102501.72
2023-01-26T21:11:33.990Z,102506.16
2023-01-26T21:14:03.910Z,102508.03
2023-01-26T21:16:35.734Z,102508.16
2023-01-26T21:19:04.381Z,102501.88
2023-01-26T21:21:32.828Z,102505.16
2023-01-26T21:24:01.563Z,102496.47
2023-01-26T21:26:30.088Z,102502.56
2023-01-26T21:29:00.623Z,102500.63
2023-01-26T21:31:32.895Z,102498.97
2023-01-26T21:34:02.555Z,102487.56
2023-01-26T21:36:34.055Z,102494.50
2023-01-26T21:39:07.178Z,102500.72
2023-01-26T21:41:53.171Z,102501.56
2023-01-26T21:44:23.750Z,102452.47
2023-01-26T21:46:56.032Z,102496.81
2023-01-26T21:49:26.057Z,102501.97
2023-01-26T21:52:12.492Z,102491.88
2023-01-26T21:54:41.589Z,102499.94
2023-01-26T21:57:25.596Z,102505.28
2023-01-26T21:59:54.211Z,102499.28
2023-01-26T22:02:24.112Z,102497.09
2023-01-26T22:04:52.862Z,102507.69
2023-01-26T22:07:21.261Z,102501.44
2023-01-26T22:09:49.577Z,102504.00
2023-01-26T22:12:18.126Z,102504.06
2023-01-26T22:14:46.590Z,102496.38
2023-01-26T22:17:14.860Z,102493.72
2023-01-26T22:19:44.650Z,102471.16
2023-01-26T22:22:13.074Z,102494.72
2023-01-26T22:24:41.477Z,102500.84
2023-01-26T22:27:09.957Z,102501.16
2023-01-26T22:29:38.252Z,102492.25
2023-01-26T22:32:07.052Z,102498.28
2023-01-26T22:34:36.034Z,102465.19
2023-01-26T22:37:05.974Z,102498.28
2023-01-26T22:39:34.282Z,102498.41
2023-01-26T22:42:03.424Z,102493.50
2023-01-26T22:44:31.726Z,102493.69
2023-01-26T22:47:00.014Z,102483.72
2023-01-26T22:49:28.449Z,102497.09
2023-01-26T22:51:56.890Z,102501.63
2023-01-26T22:54:27.756Z,102498.94
2023-01-26T22:56:56.076Z,102507.03
2023-01-26T22:59:24.436Z,102506.00
2023-01-26T23:01:52.755Z,102497.25
2023-01-26T23:04:21.085Z,102492.75
2023-01-26T23:06:49.439Z,102495.19
2023-01-26T23:09:17.705Z,102497.66
2023-01-26T23:12:02.449Z,102487.09
2023-01-26T23:14:31.654Z,102498.59
2023-01-26T23:17:00.234Z,102498.09
2023-01-26T23:19:30.089Z,102484.53
2023-01-26T23:21:58.470Z,102487.28
2023-01-26T23:24:26.849Z,102488.06
2023-01-26T23:26:55.275Z,102490.63
2023-01-26T23:29:25.182Z,102489.88
2023-01-26T23:31:53.628Z,102475.75
2023-01-26T23:34:22.330Z,102479.34
2023-01-26T23:36:50.641Z,102414.09
2023-01-26T23:39:19.040Z,102484.03
2023-01-26T23:41:47.388Z,102485.81
2023-01-26T23:44:15.851Z,102483.00
2023-01-26T23:46:45.696Z,102485.88
2023-01-26T23:49:14.175Z,102489.34
2023-01-26T23:51:42.428Z,102486.69
2023-01-26T23:54:10.723Z,102478.56
2023-01-26T23:56:39.026Z,102476.19
2023-01-26T23:59:07.464Z,102474.44
